createdAt,value
2019-05-26T00:01:02.038Z,14.90
2019-05-26T00:03:30.508Z,14.80
2019-05-26T00:05:58.923Z,14.80
2019-05-26T00:08:27.345Z,14.70
2019-05-26T00:10:55.778Z,14.60
2019-05-26T00:13:24.195Z,14.60
2019-05-26T00:15:52.690Z,14.50
2019-05-26T00:18:21.207Z,14.50
2019-05-26T00:20:49.620Z,14.50
2019-05-26T00:23:18.358Z,14.40
2019-05-26T00:25:46.798Z,14.30
2019-05-26T00:28:15.557Z,14.30
2019-05-26T00:30:44.251Z,14.20
2019-05-26T00:33:12.667Z,14.20
2019-05-26T00:35:41.092Z,14.30
2019-05-26T00:38:09.535Z,14.20
2019-05-26T00:40:37.951Z,14.20
2019-05-26T00:43:06.366Z,14.20
2019-05-26T00:45:35.101Z,14.20
2019-05-26T00:48:03.580Z,14.10
2019-05-26T00:50:32.406Z,14.10
2019-05-26T00:53:00.894Z,14.10
2019-05-26T00:55:29.313Z,14.10
2019-05-26T00:57:57.990Z,14.10
2019-05-26T01:00:38.404Z,14.10
2019-05-26T01:03:06.802Z,14.00
2019-05-26T01:05:35.238Z,14.00
2019-05-26T01:08:06.577Z,14.00
2019-05-26T01:10:35.526Z,13.90
2019-05-26T01:13:05.324Z,13.80
2019-05-26T01:15:34.129Z,13.80
2019-05-26T01:18:02.631Z,13.80
2019-05-26T01:20:31.316Z,13.80
2019-05-26T01:22:59.733Z,13.80
2019-05-26T01:25:28.177Z,13.80
2019-05-26T01:27:56.602Z,13.70
2019-05-26T01:30:36.337Z,13.70
2019-05-26T01:33:05.490Z,13.60
2019-05-26T01:35:35.149Z,13.60
2019-05-26T01:38:04.484Z,13.60
2019-05-26T01:40:38.173Z,13.60
2019-05-26T01:43:06.602Z,13.60
2019-05-26T01:45:35.012Z,13.60
2019-05-26T01:48:03.723Z,13.50
2019-05-26T01:50:32.137Z,13.50
2019-05-26T01:53:00.660Z,13.50
2019-05-26T01:55:29.085Z,13.40
2019-05-26T01:57:57.526Z,13.40
2019-05-26T02:00:26.274Z,13.30
2019-05-26T02:02:55.060Z,13.30
2019-05-26T02:05:23.521Z,13.20
2019-05-26T02:07:51.971Z,13.30
2019-05-26T02:10:20.747Z,13.30
2019-05-26T02:12:49.174Z,13.30
2019-05-26T02:15:18.210Z,13.20
2019-05-26T02:17:46.663Z,13.10
2019-05-26T02:20:15.620Z,13.10
2019-05-26T02:22:44.028Z,13.20
2019-05-26T02:25:12.825Z,13.10
2019-05-26T02:27:41.545Z,13.00
2019-05-26T02:30:10.805Z,13.10
2019-05-26T02:32:39.552Z,13.20
2019-05-26T02:35:09.047Z,13.20
2019-05-26T02:37:37.600Z,13.20
2019-05-26T02:40:08.149Z,12.90
2019-05-26T02:42:36.819Z,12.70
2019-05-26T02:45:08.778Z,12.70
2019-05-26T02:47:37.203Z,12.80
2019-05-26T02:50:07.074Z,12.90
2019-05-26T02:52:35.502Z,12.80
2019-05-26T02:55:06.752Z,12.70
2019-05-26T02:57:35.145Z,12.60
2019-05-26T03:00:05.450Z,12.50
2019-05-26T03:02:33.936Z,12.50
2019-05-26T03:05:02.519Z,12.50
2019-05-26T03:07:32.078Z,12.40
2019-05-26T03:10:03.196Z,12.40
2019-05-26T03:12:33.986Z,12.50
2019-05-26T03:15:04.946Z,12.60
2019-05-26T03:17:34.378Z,12.70
2019-05-26T03:20:04.600Z,12.60
2019-05-26T03:22:34.017Z,12.40
2019-05-26T03:25:04.315Z,12.40
2019-05-26T03:27:32.752Z,12.40
2019-05-26T03:30:01.186Z,12.30
2019-05-26T03:32:29.709Z,12.30
2019-05-26T03:34:58.202Z,12.40
2019-05-26T03:37:26.700Z,12.30
2019-05-26T03:39:55.119Z,12.20
2019-05-26T03:42:23.541Z,12.30
2019-05-26T03:44:52.019Z,12.40
2019-05-26T03:47:20.445Z,12.40
2019-05-26T03:49:48.897Z,12.50
2019-05-26T03:52:17.308Z,12.60
2019-05-26T03:54:46.072Z,12.70
2019-05-26T03:57:14.496Z,12.70
2019-05-26T03:59:42.901Z,12.70
2019-05-26T04:02:11.327Z,12.70
2019-05-26T04:04:39.762Z,12.60
2019-05-26T04:07:08.169Z,12.60
2019-05-26T04:09:36.607Z,12.60
2019-05-26T04:12:05.213Z,12.50
2019-05-26T04:14:33.700Z,12.40
2019-05-26T04:17:02.120Z,12.40
2019-05-26T04:19:30.592Z,12.40
2019-05-26T04:21:59.388Z,12.40
2019-05-26T04:24:27.795Z,12.50
2019-05-26T04:26:56.219Z,12.40
2019-05-26T04:29:24.732Z,12.40
2019-05-26T04:31:53.233Z,12.30
2019-05-26T04:34:21.980Z,12.40
2019-05-26T04:36:50.429Z,12.40
2019-05-26T04:39:18.865Z,12.50
2019-05-26T04:41:47.544Z,12.50
2019-05-26T04:44:15.974Z,12.60
2019-05-26T04:46:44.380Z,12.60
2019-05-26T04:49:12.828Z,12.60
2019-05-26T04:51:41.264Z,12.60
2019-05-26T04:54:09.679Z,12.50
2019-05-26T04:56:38.117Z,12.50
2019-05-26T04:59:06.564Z,12.60
2019-05-26T05:01:34.990Z,12.60
2019-05-26T05:04:03.501Z,12.70
2019-05-26T05:06:32.179Z,12.90
2019-05-26T05:09:00.611Z,13.00
2019-05-26T05:11:29.062Z,13.10
2019-05-26T05:13:57.487Z,13.20
2019-05-26T05:16:25.931Z,13.30
2019-05-26T05:18:54.363Z,13.40
2019-05-26T05:21:23.139Z,13.30
2019-05-26T05:23:51.565Z,13.40
2019-05-26T05:26:19.980Z,13.50
2019-05-26T05:28:48.719Z,13.70
2019-05-26T05:31:17.151Z,13.70
2019-05-26T05:33:45.816Z,13.80
2019-05-26T05:36:14.247Z,13.70
2019-05-26T05:38:42.681Z,13.80
2019-05-26T05:41:11.121Z,13.80
2019-05-26T05:43:39.567Z,13.90
2019-05-26T05:46:07.972Z,14.00
2019-05-26T05:48:36.675Z,14.10
2019-05-26T05:51:05.103Z,14.20
2019-05-26T05:53:33.863Z,14.30
2019-05-26T05:56:02.414Z,14.30
2019-05-26T05:58:30.987Z,14.40
2019-05-26T06:00:59.452Z,14.50
2019-05-26T06:03:27.870Z,14.60
2019-05-26T06:05:56.300Z,14.70
2019-05-26T06:08:24.782Z,14.90
2019-05-26T06:10:53.206Z,15.00
2019-05-26T06:13:21.904Z,15.10
2019-05-26T06:15:50.615Z,15.20
2019-05-26T06:18:19.303Z,15.20
2019-05-26T06:20:47.757Z,15.20
2019-05-26T06:23:16.496Z,15.30
2019-05-26T06:25:44.922Z,15.40
2019-05-26T06:28:13.708Z,15.40
2019-05-26T06:30:42.486Z,15.40
2019-05-26T06:33:10.905Z,15.40
2019-05-26T06:35:39.646Z,15.40
2019-05-26T06:38:08.097Z,15.30
2019-05-26T06:40:36.519Z,15.30
2019-05-26T06:43:05.010Z,15.40
2019-05-26T06:45:33.711Z,15.50
2019-05-26T06:48:02.162Z,15.50
2019-05-26T06:50:30.962Z,15.60
2019-05-26T06:52:59.381Z,15.50
2019-05-26T06:55:27.800Z,15.50
2019-05-26T06:57:56.231Z,15.60
2019-05-26T07:00:25.007Z,15.60
2019-05-26T07:02:53.884Z,15.50
2019-05-26T07:05:22.314Z,15.60
2019-05-26T07:07:50.754Z,15.60
2019-05-26T07:10:19.159Z,15.60
2019-05-26T07:12:47.570Z,15.70
2019-05-26T07:15:16.927Z,15.60
2019-05-26T07:17:45.362Z,15.60
2019-05-26T07:20:14.532Z,15.50
2019-05-26T07:22:42.957Z,15.40
2019-05-26T07:25:12.096Z,15.50
2019-05-26T07:27:40.775Z,15.40
2019-05-26T07:30:10.587Z,15.50
2019-05-26T07:32:39.507Z,15.60
2019-05-26T07:35:08.360Z,15.90
2019-05-26T07:37:36.812Z,16.20
2019-05-26T07:40:05.976Z,16.50
2019-05-26T07:42:34.828Z,16.80
2019-05-26T07:45:04.430Z,17.00
2019-05-26T07:47:32.859Z,17.10
2019-05-26T07:50:01.609Z,17.30
2019-05-26T07:52:30.032Z,17.30
2019-05-26T07:54:58.447Z,17.50
2019-05-26T07:57:27.304Z,17.60
2019-05-26T07:59:55.795Z,17.70
2019-05-26T08:02:24.216Z,18.00
2019-05-26T08:04:52.658Z,18.10
2019-05-26T08:07:23.120Z,18.30
2019-05-26T08:09:51.216Z,18.50
2019-05-26T08:12:27.057Z,18.50
2019-05-26T08:14:49.779Z,18.50
2019-05-26T08:17:18.209Z,18.50
2019-05-26T08:19:46.652Z,18.60
2019-05-26T08:22:15.069Z,18.80
2019-05-26T08:24:43.484Z,18.90
2019-05-26T08:27:11.928Z,18.90
2019-05-26T08:29:40.367Z,18.70
2019-05-26T08:32:08.869Z,18.70
2019-05-26T08:34:37.584Z,18.70
2019-05-26T08:37:06.274Z,18.90
2019-05-26T08:39:34.698Z,19.00
2019-05-26T08:42:03.207Z,19.10
2019-05-26T08:44:31.631Z,19.20
2019-05-26T08:47:00.452Z,19.30
2019-05-26T08:49:28.867Z,19.30
2019-05-26T08:51:57.297Z,19.30
2019-05-26T08:54:26.031Z,19.30
2019-05-26T08:56:54.457Z,19.40
2019-05-26T08:59:22.883Z,19.20
2019-05-26T09:01:51.299Z,19.10
2019-05-26T09:04:19.716Z,19.00
2019-05-26T09:06:48.156Z,18.90
2019-05-26T09:09:16.587Z,19.00
2019-05-26T09:11:45.416Z,19.10
2019-05-26T09:14:14.186Z,19.20
2019-05-26T09:16:42.645Z,19.20
2019-05-26T09:19:11.168Z,19.30
2019-05-26T09:21:39.874Z,19.50
2019-05-26T09:24:08.297Z,19.50
2019-05-26T09:26:37.116Z,19.40
2019-05-26T09:29:05.607Z,19.50
2019-05-26T09:31:34.386Z,19.70
2019-05-26T09:34:03.281Z,19.90
2019-05-26T09:36:31.780Z,20.10
2019-05-26T09:39:00.388Z,20.20
2019-05-26T09:41:29.155Z,20.30
2019-05-26T09:43:57.606Z,20.30
2019-05-26T09:46:26.119Z,20.60
2019-05-26T09:48:54.511Z,20.60
2019-05-26T09:51:22.955Z,20.80
2019-05-26T09:54:01.336Z,20.70
2019-05-26T09:56:21.854Z,20.80
2019-05-26T09:58:50.301Z,21.00
2019-05-26T10:01:19.185Z,21.10
2019-05-26T10:03:47.601Z,21.30
2019-05-26T10:06:16.044Z,21.50
2019-05-26T10:08:44.519Z,21.40
2019-05-26T10:11:12.923Z,21.30
2019-05-26T10:13:41.373Z,21.30
2019-05-26T10:16:09.817Z,21.30
2019-05-26T10:18:38.267Z,21.30
2019-05-26T10:21:07.001Z,21.50
2019-05-26T10:23:35.709Z,21.70
2019-05-26T10:26:04.264Z,21.70
2019-05-26T10:28:32.748Z,21.90
2019-05-26T10:31:01.243Z,22.00
2019-05-26T10:33:29.647Z,22.10
2019-05-26T10:35:58.095Z,22.00
2019-05-26T10:38:26.514Z,22.10
2019-05-26T10:40:55.269Z,22.10
2019-05-26T10:43:23.958Z,22.10
2019-05-26T10:45:52.386Z,22.10
2019-05-26T10:48:21.167Z,22.30
2019-05-26T10:50:51.237Z,22.30
2019-05-26T10:53:19.658Z,22.30
2019-05-26T10:55:48.377Z,22.20
2019-05-26T10:58:16.793Z,22.30
2019-05-26T11:00:45.581Z,22.30
2019-05-26T11:03:13.999Z,22.30
2019-05-26T11:05:42.695Z,22.30
2019-05-26T11:08:11.134Z,22.20
2019-05-26T11:10:39.839Z,22.30
2019-05-26T11:13:08.273Z,22.50
2019-05-26T11:15:36.718Z,22.70
2019-05-26T11:18:05.311Z,22.90
2019-05-26T11:20:33.739Z,23.30
2019-05-26T11:23:02.153Z,23.60
2019-05-26T11:25:30.945Z,23.90
2019-05-26T11:27:59.409Z,23.50
2019-05-26T11:30:28.282Z,23.50
2019-05-26T11:32:59.574Z,23.50
2019-05-26T11:35:26.966Z,23.60
2019-05-26T11:37:55.379Z,23.60
2019-05-26T11:40:23.867Z,24.00
2019-05-26T11:42:52.630Z,24.10
2019-05-26T11:45:21.534Z,24.20
2019-05-26T11:47:49.957Z,24.10
2019-05-26T11:50:18.819Z,23.90
2019-05-26T11:52:47.235Z,24.00
2019-05-26T11:55:16.828Z,24.30
2019-05-26T11:57:45.249Z,24.20
2019-05-26T12:00:17.050Z,24.10
2019-05-26T12:02:46.691Z,24.00
2019-05-26T12:05:17.647Z,24.10
2019-05-26T12:07:45.854Z,24.30
2019-05-26T12:10:15.997Z,24.40
2019-05-26T12:12:44.407Z,24.40
2019-05-26T12:15:15.181Z,24.30
2019-05-26T12:17:44.025Z,24.50
2019-05-26T12:20:15.321Z,24.70
2019-05-26T12:22:43.739Z,24.50
2019-05-26T12:25:14.612Z,24.40
2019-05-26T12:27:43.035Z,24.20
2019-05-26T12:30:14.612Z,24.20
2019-05-26T12:32:43.233Z,24.30
2019-05-26T12:35:12.180Z,24.50
2019-05-26T12:37:40.596Z,24.50
2019-05-26T12:40:09.744Z,24.50
2019-05-26T12:42:38.488Z,24.90
2019-05-26T12:45:08.307Z,24.60
2019-05-26T12:47:36.814Z,24.80
2019-05-26T12:50:07.832Z,24.90
2019-05-26T12:52:36.269Z,24.80
2019-05-26T12:55:09.010Z,24.70
2019-05-26T12:57:36.616Z,24.50
2019-05-26T13:00:07.075Z,24.50
2019-05-26T13:02:35.569Z,24.30
2019-05-26T13:05:06.250Z,24.50
2019-05-26T13:07:34.694Z,24.50
2019-05-26T13:10:03.967Z,24.80
2019-05-26T13:12:32.401Z,24.90
2019-05-26T13:15:05.779Z,25.10
2019-05-26T13:17:31.035Z,25.40
2019-05-26T13:19:59.451Z,25.70
2019-05-26T13:22:27.877Z,25.40
2019-05-26T13:24:56.306Z,25.20
2019-05-26T13:27:24.765Z,25.70
2019-05-26T13:29:53.249Z,25.90
2019-05-26T13:32:21.668Z,25.90
2019-05-26T13:34:50.091Z,25.60
2019-05-26T13:37:18.539Z,25.40
2019-05-26T13:39:46.962Z,25.20
2019-05-26T13:42:15.398Z,25.10
2019-05-26T13:44:43.827Z,25.00
2019-05-26T13:47:25.408Z,24.80
2019-05-26T13:49:42.730Z,24.90
2019-05-26T13:52:11.239Z,25.20
2019-05-26T13:54:39.738Z,25.20
2019-05-26T13:57:08.217Z,25.10
2019-05-26T13:59:36.654Z,24.80
2019-05-26T14:02:05.437Z,24.80
2019-05-26T14:04:34.249Z,24.50
2019-05-26T14:07:02.950Z,24.10
2019-05-26T14:09:31.398Z,24.00
2019-05-26T14:12:00.151Z,23.60
2019-05-26T14:14:28.646Z,23.30
2019-05-26T14:16:58.634Z,23.10
2019-05-26T14:19:29.532Z,23.00
2019-05-26T14:21:57.974Z,22.80
2019-05-26T14:24:26.379Z,22.50
2019-05-26T14:26:54.802Z,22.40
2019-05-26T14:29:23.238Z,22.40
2019-05-26T14:31:52.882Z,22.40
2019-05-26T14:34:21.463Z,22.30
2019-05-26T14:36:49.908Z,22.30
2019-05-26T14:39:18.366Z,22.20
2019-05-26T14:41:46.789Z,22.30
2019-05-26T14:44:15.208Z,22.50
2019-05-26T14:46:43.954Z,22.70
2019-05-26T14:49:12.384Z,22.70
2019-05-26T14:51:41.052Z,22.80
2019-05-26T14:54:09.476Z,22.90
2019-05-26T14:56:37.914Z,23.00
2019-05-26T14:59:06.328Z,23.00
2019-05-26T15:01:34.761Z,23.00
2019-05-26T15:04:03.167Z,23.10
2019-05-26T15:06:31.917Z,23.00
2019-05-26T15:09:00.333Z,22.90
2019-05-26T15:11:29.093Z,22.90
2019-05-26T15:13:57.798Z,22.90
2019-05-26T15:16:26.218Z,22.90
2019-05-26T15:18:54.994Z,22.70
2019-05-26T15:21:23.427Z,22.70
2019-05-26T15:23:51.836Z,22.50
2019-05-26T15:26:20.248Z,22.50
2019-05-26T15:28:48.674Z,22.40
2019-05-26T15:31:17.150Z,22.50
2019-05-26T15:33:45.843Z,22.50
2019-05-26T15:36:16.069Z,22.30
2019-05-26T15:38:44.434Z,22.40
2019-05-26T15:41:12.852Z,22.40
2019-05-26T15:43:41.263Z,22.60
2019-05-26T15:46:22.347Z,22.80
2019-05-26T15:48:39.874Z,23.00
2019-05-26T15:51:08.293Z,23.20
2019-05-26T15:53:36.692Z,23.40
2019-05-26T15:56:05.476Z,23.60
2019-05-26T15:58:33.957Z,24.00
2019-05-26T16:01:02.451Z,24.20
2019-05-26T16:04:01.650Z,24.00
2019-05-26T16:06:30.078Z,23.80
2019-05-26T16:08:58.493Z,23.50
2019-05-26T16:11:26.940Z,23.40
2019-05-26T16:13:55.367Z,23.30
2019-05-26T16:16:23.795Z,23.30
2019-05-26T16:18:52.227Z,23.10
2019-05-26T16:21:27.961Z,22.90
2019-05-26T16:23:50.788Z,22.80
2019-05-26T16:26:19.199Z,22.70
2019-05-26T16:28:47.630Z,22.60
2019-05-26T16:31:16.036Z,22.40
2019-05-26T16:33:44.460Z,22.40
2019-05-26T16:36:12.884Z,22.30
2019-05-26T16:38:41.413Z,22.20
2019-05-26T16:41:09.827Z,22.10
2019-05-26T16:43:38.258Z,22.00
2019-05-26T16:46:06.741Z,22.00
2019-05-26T16:48:35.473Z,21.90
2019-05-26T16:51:03.912Z,21.90
2019-05-26T16:53:32.372Z,21.90
2019-05-26T16:56:00.772Z,21.80
2019-05-26T16:58:29.193Z,21.70
2019-05-26T17:00:57.936Z,21.70
2019-05-26T17:03:26.364Z,21.70
2019-05-26T17:06:07.122Z,21.80
2019-05-26T17:08:24.933Z,21.90
2019-05-26T17:10:53.667Z,22.20
2019-05-26T17:13:22.069Z,22.60
2019-05-26T17:15:50.757Z,22.90
2019-05-26T17:21:05.861Z,24.20
2019-05-26T17:23:34.285Z,24.30
2019-05-26T17:26:02.724Z,24.30
2019-05-26T17:28:31.130Z,24.20
2019-05-26T17:30:59.569Z,23.90
2019-05-26T17:33:28.340Z,23.60
2019-05-26T17:35:57.033Z,23.40
2019-05-26T17:38:25.739Z,23.30
2019-05-26T17:40:54.198Z,23.10
2019-05-26T17:43:22.681Z,22.90
2019-05-26T17:45:51.413Z,22.80
2019-05-26T17:48:20.111Z,22.80
2019-05-26T17:50:48.533Z,22.70
2019-05-26T17:53:16.951Z,22.70
2019-05-26T17:55:45.357Z,22.70
2019-05-26T17:58:13.872Z,22.60
2019-05-26T18:00:42.313Z,22.70
2019-05-26T18:03:10.750Z,22.50
2019-05-26T18:05:39.167Z,22.40
2019-05-26T18:08:07.874Z,22.20
2019-05-26T18:10:36.551Z,22.20
2019-05-26T18:13:05.066Z,22.10
2019-05-26T18:15:33.853Z,22.20
2019-05-26T18:18:02.294Z,22.30
2019-05-26T18:20:30.722Z,22.40
2019-05-26T18:22:59.162Z,22.40
2019-05-26T18:25:27.930Z,22.40
2019-05-26T18:27:56.362Z,22.30
2019-05-26T18:30:24.871Z,22.20
2019-05-26T18:32:53.373Z,22.00
2019-05-26T18:35:21.807Z,21.80
2019-05-26T18:37:52.651Z,21.80
2019-05-26T18:40:21.126Z,21.50
2019-05-26T18:42:49.846Z,21.50
2019-05-26T18:45:18.661Z,21.50
2019-05-26T18:48:01.718Z,21.40
2019-05-26T18:50:17.573Z,21.30
2019-05-26T18:52:45.996Z,21.30
2019-05-26T18:55:15.177Z,21.30
2019-05-26T18:57:43.583Z,21.30
2019-05-26T19:00:12.727Z,21.30
2019-05-26T19:02:41.168Z,21.30
2019-05-26T19:05:09.753Z,21.20
2019-05-26T19:07:38.177Z,21.20
2019-05-26T19:10:08.484Z,21.20
2019-05-26T19:12:36.967Z,21.10
2019-05-26T19:15:07.423Z,21.10
2019-05-26T19:17:35.867Z,21.10
2019-05-26T19:20:16.034Z,21.10
2019-05-26T19:22:39.899Z,21.20
2019-05-26T19:25:08.468Z,21.20
2019-05-26T19:27:36.959Z,21.20
2019-05-26T19:30:07.292Z,21.00
2019-05-26T19:32:35.712Z,21.10
2019-05-26T19:35:07.270Z,21.00
2019-05-26T19:37:35.771Z,21.00
2019-05-26T19:40:07.403Z,21.10
2019-05-26T19:42:35.819Z,21.00
2019-05-26T19:45:06.076Z,21.00
2019-05-26T19:47:34.742Z,20.80
2019-05-26T19:50:04.252Z,20.90
2019-05-26T19:52:32.671Z,20.80
2019-05-26T19:55:01.155Z,20.70
2019-05-26T19:57:29.612Z,20.70
2019-05-26T19:59:58.093Z,20.70
2019-05-26T20:02:26.950Z,20.60
2019-05-26T20:04:55.400Z,20.60
2019-05-26T20:07:23.888Z,20.60
2019-05-26T20:09:52.309Z,20.60
2019-05-26T20:12:21.006Z,20.60
2019-05-26T20:14:49.719Z,20.60
2019-05-26T20:17:18.267Z,20.60
2019-05-26T20:19:47.011Z,20.60
2019-05-26T20:22:15.441Z,20.60
2019-05-26T20:24:45.704Z,20.50
2019-05-26T20:27:14.181Z,20.50
2019-05-26T20:29:42.614Z,20.50
2019-05-26T20:32:11.316Z,20.40
2019-05-26T20:34:39.753Z,20.40
2019-05-26T20:37:08.231Z,20.40
2019-05-26T20:39:36.687Z,20.40
2019-05-26T20:42:05.182Z,20.40
2019-05-26T20:44:33.647Z,20.40
2019-05-26T20:47:02.065Z,20.30
2019-05-26T20:49:44.372Z,20.40
2019-05-26T20:52:00.625Z,20.40
2019-05-26T20:54:29.411Z,20.30
2019-05-26T20:56:57.830Z,20.40
2019-05-26T20:59:26.326Z,20.40
2019-05-26T21:01:55.084Z,20.40
2019-05-26T21:04:23.545Z,20.40
2019-05-26T21:06:51.959Z,20.40
2019-05-26T21:09:20.391Z,20.40
2019-05-26T21:11:48.804Z,20.30
2019-05-26T21:14:17.278Z,20.30
2019-05-26T21:16:45.718Z,20.20
2019-05-26T21:19:14.151Z,20.20
2019-05-26T21:21:42.575Z,20.20
2019-05-26T21:24:11.329Z,20.10
2019-05-26T21:26:39.784Z,20.00
2019-05-26T21:29:08.423Z,19.90
2019-05-26T21:31:36.857Z,19.80
2019-05-26T21:34:05.259Z,19.70
2019-05-26T21:36:33.715Z,19.60
2019-05-26T21:39:02.152Z,19.50
2019-05-26T21:41:30.808Z,19.50
2019-05-26T21:43:59.246Z,19.40
2019-05-26T21:46:27.683Z,19.40
2019-05-26T21:48:56.360Z,19.30
2019-05-26T21:51:24.782Z,19.30
2019-05-26T21:53:53.208Z,19.20
2019-05-26T21:56:21.619Z,19.20
2019-05-26T21:58:50.056Z,19.10
2019-05-26T22:01:18.463Z,19.10
2019-05-26T22:03:47.220Z,19.20
2019-05-26T22:06:19.495Z,19.20
2019-05-26T22:08:45.813Z,19.10
2019-05-26T22:11:14.514Z,19.20
2019-05-26T22:13:43.350Z,19.20
2019-05-26T22:16:11.759Z,19.20
2019-05-26T22:18:40.173Z,19.20
2019-05-26T22:21:08.587Z,19.00
2019-05-26T22:23:37.029Z,18.90
2019-05-26T22:26:05.479Z,18.90
2019-05-26T22:28:33.973Z,18.90
2019-05-26T22:31:02.707Z,18.80
2019-05-26T22:33:31.140Z,18.80
2019-05-26T22:35:59.891Z,18.80
2019-05-26T22:38:28.344Z,18.70
2019-05-26T22:40:57.090Z,18.70
2019-05-26T22:43:25.794Z,18.50
2019-05-26T22:45:54.240Z,18.60
2019-05-26T22:48:22.679Z,18.60
2019-05-26T22:50:51.114Z,18.60
2019-05-26T22:53:19.529Z,18.60
2019-05-26T22:55:47.948Z,18.50
2019-05-26T22:58:16.636Z,18.60
2019-05-26T23:00:45.091Z,18.50
2019-05-26T23:03:13.546Z,18.50
2019-05-26T23:05:42.352Z,18.40
2019-05-26T23:08:10.759Z,18.30
2019-05-26T23:10:39.208Z,18.30
2019-05-26T23:13:07.626Z,18.30
2019-05-26T23:15:36.051Z,18.40
2019-05-26T23:18:04.542Z,18.30
2019-05-26T23:20:32.971Z,18.20
2019-05-26T23:23:01.400Z,18.30
2019-05-26T23:25:30.071Z,18.20
2019-05-26T23:27:58.503Z,18.10
2019-05-26T23:30:26.910Z,18.20
2019-05-26T23:32:55.339Z,18.20
2019-05-26T23:35:23.798Z,18.10
2019-05-26T23:37:52.566Z,18.10
2019-05-26T23:40:20.999Z,18.00
2019-05-26T23:42:49.423Z,18.00
2019-05-26T23:45:17.842Z,18.00
2019-05-26T23:47:46.631Z,17.90
2019-05-26T23:50:15.119Z,18.00
2019-05-26T23:52:43.527Z,18.10
2019-05-26T23:55:12.085Z,18.10
2019-05-26T23:57:40.503Z,18.00
